Latest Weather Observations for St Lawrence

IDQ60801

Issued at 10:02 pm EST Friday 26 April 2019 (issued every 10 minutes, with the page automatically refreshed every 10 minutes)

About weather observations | Map of weather stations | Latest weather observations for QLD | Other Formats
Station Details ID: 033210 Name: ST LAWRENCE Lat: -22.35 Lon: 149.52 Height: 9.19 m
Data from the previous 72 hours. | See also: Recent months at St Lawrence
Date/Time
EST
Temp
°C
App
Temp
°C
Dew
Point
°C
Rel
Hum
%
Delta-T
°C
Wind Press
QNH
hPa
Press
MSL
hPa
Rain since
9am
mm
Dir  Spd
km/h
Gust
km/h
Spd
kts
Gust
kts
26/10:00pm 22.5 24.1 20.8 90 1.1 S 13 17 7 9 1016.1 1016.0 21.4
26/09:30pm 22.6 26.1 21.8 95 0.5 SSW 6 9 3 5 1016.2 1016.1 21.4
26/09:00pm 22.5 27.1 21.7 95 0.5 CALM 0 2 0 1 1015.9 1015.8 21.2
26/08:30pm 22.4 25.8 21.6 95 0.5 E 6 9 3 5 1015.7 1015.6 21.2
26/08:00pm 22.5 25.4 21.7 95 0.5 SE 9 19 5 10 1015.4 1015.3 16.6
26/07:30pm 22.7 25.1 21.5 93 0.8 S 11 20 6 11 1015.2 1015.1 3.4
26/07:00pm 23.5 26.2 21.4 88 1.4 SSE 9 15 5 8 1014.6 1014.5 0.0
26/06:30pm 23.9 27.2 21.4 86 1.6 ESE 6 7 3 4 1014.1 1014.0 0.0
26/06:00pm 24.2 27.1 21.1 83 2.0 ESE 7 9 4 5 1013.7 1013.6 0.0
26/05:30pm 25.2 29.5 21.1 78 2.7 CALM 0 0 0 0 1013.4 1013.3 0.0
26/05:00pm 25.4 29.7 21.1 77 2.8 CALM 0 0 0 0 1013.2 1013.1 0.0
26/04:30pm 26.0 28.4 20.8 73 3.4 SE 9 15 5 8 1012.7 1012.6 0.0
26/04:00pm 27.4 30.1 20.7 67 4.4 SSE 7 9 4 5 1012.3 1012.2 0.0
26/03:30pm 27.5 29.6 20.1 64 4.8 S 9 11 5 6 1012.3 1012.2 0.0
26/03:00pm 27.4 29.4 20.0 64 4.8 SSW 9 11 5 6 1012.2 1012.1 0.0
26/02:30pm 27.4 29.4 20.7 67 4.4 SSE 11 17 6 9 1012.4 1012.3 0.0
26/02:00pm 26.4 28.6 20.5 70 3.9 S 9 13 5 7 1012.6 1012.5 0.0
26/01:30pm 26.2 28.6 20.8 72 3.6 S 9 15 5 8 1012.9 1012.8 0.0
26/01:00pm 26.1 28.5 20.9 73 3.4 S 9 13 5 7 1013.4 1013.3 0.0
26/12:30pm 25.8 28.7 21.0 75 3.2 S 7 13 4 7 1013.7 1013.6 0.0
26/12:00pm 24.8 27.1 20.7 78 2.7 SSW 9 15 5 8 1014.1 1014.0 0.0
26/11:30am 24.6 26.8 20.5 78 2.7 SSE 9 15 5 8 1014.4 1014.3 0.0
26/11:00am 24.0 25.7 20.9 83 2.0 S 13 19 7 10 1014.9 1014.8 0.0
26/10:30am 23.4 25.2 20.3 83 2.0 S 11 17 6 9 1015.4 1015.3 0.0
26/10:00am 23.7 26.0 20.6 83 2.0 S 9 15 5 8 1015.4 1015.3 0.0
26/09:30am 23.6 25.6 20.7 84 1.9 S 11 17 6 9 1015.5 1015.4 0.0
26/09:00am 22.8 24.8 20.7 88 1.4 SSE 11 17 6 9 1015.3 1015.2 41.8
26/08:30am 22.7 24.6 20.6 88 1.4 S 11 20 6 11 1015.4 1015.3 41.8
26/08:00am 22.5 24.6 21.0 91 1.0 S 11 17 6 9 1014.9 1014.8 41.8
26/07:30am 21.9 24.3 20.9 94 0.7 S 9 13 5 7 1014.8 1014.7 41.8
26/07:00am 21.5 23.4 20.5 94 0.6 SSE 11 15 6 8 1014.7 1014.6 41.8
26/06:30am 21.4 23.0 20.7 96 0.5 SSE 13 19 7 10 1014.5 1014.4 41.8
26/06:00am 21.4 23.4 20.7 96 0.5 S 11 17 6 9 1014.3 1014.2 41.8
26/05:30am 21.4 23.1 20.9 97 0.3 S 13 20 7 11 1014.1 1014.0 41.6
26/05:00am 21.4 23.8 20.9 97 0.3 S 9 13 5 7 1014.1 1014.0 41.2
26/04:30am 21.3 23.6 20.6 96 0.5 SSW 9 15 5 8 1013.9 1013.8 39.8
26/04:00am 21.3 23.6 20.6 96 0.5 SSW 9 15 5 8 1013.9 1013.8 38.6
26/03:30am 21.3 23.2 20.6 96 0.5 S 11 17 6 9 1013.7 1013.6 38.4
26/03:00am 21.3 23.2 20.6 96 0.5 SSE 11 17 6 9 1013.7 1013.6 37.2
26/02:30am 21.3 23.2 20.6 96 0.5 S 11 17 6 9 1013.9 1013.8 36.8
26/02:00am 21.2 22.6 20.4 95 0.5 S 13 19 7 10 1014.2 1014.1 36.8
26/01:30am 21.1 22.4 20.1 94 0.6 S 13 20 7 11 1014.4 1014.3 36.8
26/01:00am 21.4 22.7 20.2 93 0.8 S 13 20 7 11 1014.6 1014.5 36.6
26/12:30am 21.7 24.1 20.9 95 0.5 S 9 15 5 8 1014.8 1014.7 36.6
26/12:00am 21.7 24.1 20.9 95 0.5 S 9 13 5 7 1015.0 1014.9 36.6
 
Date/Time
EST
Temp
°C
App
Temp
°C
Dew
Point
°C
Rel
Hum
%
Delta-T
°C
Wind Press
QNH
hPa
Press
MSL
hPa
Rain since
9am
mm
Dir  Spd
km/h
Gust
km/h
Spd
kts
Gust
kts
25/11:30pm 21.7 24.5 20.9 95 0.5 S 7 11 4 6 1015.6 1015.5 36.6
25/11:00pm 21.6 23.6 20.8 95 0.5 S 11 15 6 8 1015.4 1015.3 36.6
25/10:30pm 21.5 23.1 20.7 95 0.5 S 13 19 7 10 1015.5 1015.4 36.6
25/10:00pm 21.5 23.0 20.5 94 0.6 S 13 20 7 11 1015.7 1015.6 36.4
25/09:30pm 21.6 23.5 20.6 94 0.6 S 11 19 6 10 1015.6 1015.5 36.4
25/09:00pm 22.0 23.7 21.0 94 0.7 S 13 17 7 9 1015.6 1015.5 36.4
25/08:30pm 22.1 24.3 21.1 94 0.7 S 11 19 6 10 1015.4 1015.3 36.4
25/08:00pm 22.3 25.5 21.3 94 0.7 S 6 9 3 5 1015.2 1015.1 36.2
25/07:30pm 22.3 24.5 21.1 93 0.8 SSE 11 17 6 9 1014.8 1014.7 36.2
25/07:00pm 22.5 24.4 21.3 93 0.8 SSE 13 19 7 10 1014.6 1014.5 36.2
25/06:30pm 22.8 25.7 21.8 94 0.7 SSE 9 13 5 7 1014.1 1014.0 35.8
25/06:00pm 22.9 25.9 21.9 94 0.7 SSE 9 13 5 7 1013.9 1013.8 35.8
25/05:30pm 23.0 25.9 21.8 93 0.8 SSE 9 15 5 8 1013.7 1013.6 35.6
25/05:00pm 23.3 25.8 21.7 91 1.1 SSE 11 15 6 8 1013.4 1013.3 35.6
25/04:30pm 23.3 25.8 21.7 91 1.1 SE 11 20 6 11 1013.1 1013.0 35.6
25/04:00pm 23.4 25.5 21.7 90 1.1 SE 13 20 7 11 1013.0 1012.9 35.6
25/03:30pm 23.9 25.9 22.2 90 1.1 ESE 15 24 8 13 1012.7 1012.6 35.6
25/03:00pm 23.2 26.1 22.4 95 0.5 SE 11 17 6 9 1012.7 1012.6 35.6
25/02:30pm 23.1 25.4 22.1 94 0.7 SE 13 20 7 11 1012.9 1012.8 35.4
25/02:00pm 22.9 25.9 21.9 94 0.7 S 9 15 5 8 1012.9 1012.8 34.6
25/01:30pm 22.9 26.2 21.9 94 0.7 SW 7 11 4 6 1013.1 1013.0 33.8
25/01:00pm 22.9 26.2 21.9 94 0.7 SSW 7 11 4 6 1013.8 1013.7 32.8
25/12:30pm 22.2 25.2 21.2 94 0.7 SW 7 9 4 5 1014.4 1014.3 32.6
25/12:00pm 22.3 26.8 21.5 95 0.5 CALM 0 6 0 3 1015.0 1014.9 31.0
25/11:30am 21.9 24.8 21.1 95 0.5 WSW 7 13 4 7 1015.3 1015.2 27.0
25/11:00am 21.8 24.8 20.8 94 0.6 W 6 7 3 4 1015.7 1015.6 21.6
25/10:30am 21.7 24.6 20.7 94 0.6 SSW 6 13 3 7 1016.1 1016.0 17.8
25/10:00am 21.6 24.5 20.6 94 0.6 E 6 11 3 6 1016.3 1016.2 16.4
25/09:30am 21.6 22.9 20.2 92 0.9 E 13 20 7 11 1016.4 1016.3 11.6
25/09:00am 21.9 23.7 21.2 96 0.5 SSE 13 20 7 11 1015.8 1015.7 28.0
25/08:30am 21.6 22.9 20.9 96 0.5 SSE 15 26 8 14 1015.5 1015.4 26.8
25/08:00am 21.2 22.6 20.4 95 0.5 SSE 13 20 7 11 1015.6 1015.5 25.0
25/07:30am 21.3 22.0 20.5 95 0.5 SSE 17 22 9 12 1015.2 1015.1 23.4
25/07:00am 21.2 22.6 20.4 95 0.5 S 13 20 7 11 1015.0 1014.9 22.4
25/06:30am 21.3 22.8 20.5 95 0.5 SSE 13 20 7 11 1014.7 1014.6 21.4
25/06:00am 21.5 23.1 20.8 96 0.5 S 13 19 7 10 1014.3 1014.2 20.4
25/05:30am 21.4 23.3 20.6 95 0.5 SSE 11 17 6 9 1014.3 1014.2 19.8
25/05:00am 21.4 22.9 20.6 95 0.5 SSE 13 22 7 12 1014.1 1014.0 19.2
25/04:30am 21.4 22.9 20.6 95 0.5 S 13 20 7 11 1013.8 1013.7 19.2
25/04:00am 21.6 23.2 20.8 95 0.5 S 13 20 7 11 1013.7 1013.6 19.0
25/03:30am 21.7 23.3 20.7 94 0.6 SSE 13 19 7 10 1014.0 1013.9 18.6
25/03:00am 21.8 23.4 20.8 94 0.6 SSE 13 20 7 11 1013.9 1013.8 18.4
25/02:30am 21.8 23.5 21.0 95 0.5 SSE 13 20 7 11 1014.1 1014.0 18.4
25/02:00am 21.8 23.9 21.0 95 0.5 SE 11 15 6 8 1014.6 1014.5 17.8
25/01:30am 21.9 24.0 20.9 94 0.7 SSE 11 17 6 9 1014.9 1014.8 14.8
25/01:00am 21.9 24.7 20.9 94 0.7 S 7 11 4 6 1015.2 1015.1 14.4
25/12:30am 22.0 24.1 21.0 94 0.7 SSE 11 19 6 10 1015.5 1015.4 14.4
25/12:00am 21.9 24.3 20.9 94 0.6 SSE 9 13 5 7 1015.9 1015.8 14.0
 
Date/Time
EST
Temp
°C
App
Temp
°C
Dew
Point
°C
Rel
Hum
%
Delta-T
°C
Wind Press
QNH
hPa
Press
MSL
hPa
Rain since
9am
mm
Dir  Spd
km/h
Gust
km/h
Spd
kts
Gust
kts
24/11:30pm 22.0 24.4 20.8 93 0.8 SE 9 17 5 9 1016.1 1016.0 13.8
24/11:00pm 22.1 24.9 20.9 93 0.8 SE 7 11 4 6 1016.3 1016.2 13.6
24/10:30pm 22.3 24.7 20.9 92 0.9 SE 9 15 5 8 1016.3 1016.2 12.8
24/10:00pm 22.5 25.2 21.3 93 0.8 SSE 9 13 5 7 1016.4 1016.3 12.4
24/09:30pm 22.4 24.9 21.0 92 0.9 SSE 9 13 5 7 1016.3 1016.2 12.4
24/09:00pm 22.5 25.0 21.1 92 0.9 SSE 9 13 5 7 1016.5 1016.4 12.0
24/08:30pm 22.5 25.0 21.1 92 0.9 SSE 9 11 5 6 1016.4 1016.3 11.6
24/08:00pm 22.5 25.0 21.1 92 0.9 S 9 15 5 8 1016.2 1016.1 11.4
24/07:30pm 22.4 25.8 21.0 92 0.9 S 4 9 2 5 1016.0 1015.9 11.4
24/07:00pm 22.4 25.2 20.9 91 1.0 SSE 7 15 4 8 1015.6 1015.5 11.4
24/06:30pm 22.5 26.4 21.1 92 0.9 SSE 2 9 1 5 1015.4 1015.3 11.2
24/06:00pm 22.7 26.5 21.0 90 1.1 E 2 7 1 4 1015.1 1015.0 10.6
24/05:30pm 23.4 25.5 20.9 86 1.6 ESE 11 15 6 8 1015.0 1014.9 9.8
24/05:00pm 23.3 27.8 21.6 90 1.1 CALM 0 0 0 0 1014.6 1014.5 9.8
24/04:30pm 23.4 28.1 22.0 92 0.9 CALM 0 0 0 0 1014.5 1014.4 9.8
24/04:00pm 23.2 27.3 21.6 91 1.1 SE 2 6 1 3 1014.4 1014.3 9.6
24/03:30pm 23.4 27.3 21.8 91 1.1 SSE 4 11 2 6 1014.5 1014.4 9.2
24/03:00pm 23.3 27.8 21.6 90 1.1 CALM 0 0 0 0 1014.5 1014.4 9.0
24/02:30pm 23.2 27.7 21.6 91 1.1 CALM 0 0 0 0 1014.2 1014.1 8.4
24/02:00pm 22.9 25.6 21.4 91 1.0 SE 9 13 5 7 1014.4 1014.3 8.4
24/01:30pm 22.9 25.2 21.4 91 1.0 E 11 17 6 9 1015.1 1015.0 7.8
24/01:00pm 22.5 23.1 21.1 92 0.9 ENE 19 35 10 19 1015.5 1015.4 3.6
24/12:30pm 27.3 28.9 19.9 64 4.8 ENE 11 19 6 10 1015.3 1015.2 0.0
24/12:00pm 28.5 30.2 21.0 64 5.0 ESE 13 22 7 12 1015.5 1015.4 0.0
24/11:30am 27.5 28.5 20.3 65 4.7 E 15 22 8 12 1016.0 1015.9 0.0
24/11:00am 26.7 28.3 20.8 70 3.9 ESE 13 20 7 11 1016.4 1016.3 0.0
24/10:30am 26.3 27.0 20.4 70 3.9 ESE 17 26 9 14 1016.8 1016.7 0.0
24/10:00am 26.0 27.8 21.2 75 3.2 SE 13 20 7 11 1017.1 1017.0 0.0
24/09:30am 25.1 26.8 21.0 78 2.7 SE 13 20 7 11 1017.1 1017.0 0.0
24/09:00am 24.4 26.2 21.1 82 2.2 SE 13 17 7 9 1017.1 1017.0 0.4
24/08:30am 23.9 25.7 21.2 85 1.8 SE 13 19 7 10 1017.1 1017.0 0.4
24/08:00am 22.9 25.6 21.4 91 1.0 SE 9 17 5 9 1017.0 1016.9 0.4
24/07:30am 22.4 24.6 21.2 93 0.8 SE 11 17 6 9 1016.9 1016.8 0.4
24/07:00am 22.1 25.0 21.1 94 0.7 SE 7 11 4 6 1016.6 1016.5 0.4
24/06:30am 21.8 24.1 20.6 93 0.8 SSE 9 15 5 8 1016.4 1016.3 0.2
24/06:00am 21.4 23.4 20.0 92 0.9 SSE 9 13 5 7 1015.9 1015.8 0.0
24/05:30am 21.6 23.7 20.2 92 0.9 S 9 11 5 6 1015.7 1015.6 0.0
24/05:00am 21.4 23.8 20.0 92 0.9 S 7 9 4 5 1015.3 1015.2 0.0
24/04:30am 21.4 25.1 20.0 92 0.9 CALM 0 0 0 0 1015.1 1015.0 0.0
24/04:00am 21.6 24.3 20.2 92 0.9 S 6 7 3 4 1015.1 1015.0 0.0
24/03:30am 21.4 23.9 19.9 91 1.0 S 6 7 3 4 1015.3 1015.2 0.0
24/03:00am 21.2 24.3 19.5 90 1.1 S 2 7 1 4 1015.3 1015.2 0.0
24/02:30am 21.4 23.6 19.5 89 1.2 S 7 11 4 6 1015.5 1015.4 0.0
24/02:00am 21.2 23.4 19.1 88 1.3 S 6 9 3 5 1015.8 1015.7 0.0
24/01:30am 21.3 23.4 19.0 87 1.5 S 6 9 3 5 1016.0 1015.9 0.0
24/01:00am 21.8 23.9 19.4 86 1.5 S 7 9 4 5 1016.1 1016.0 0.0
24/12:30am 21.8 23.4 19.2 85 1.6 S 9 13 5 7 1016.3 1016.2 0.0
24/12:00am 21.8 23.7 19.0 84 1.8 SSE 7 9 4 5 1016.5 1016.4 0.0
 
Date/Time
EST
Temp
°C
App
Temp
°C
Dew
Point
°C
Rel
Hum
%
Delta-T
°C
Wind Press
QNH
hPa
Press
MSL
hPa
Rain since
9am
mm
Dir  Spd
km/h
Gust
km/h
Spd
kts
Gust
kts
23/11:30pm 22.0 23.9 19.0 83 1.9 SSE 7 11 4 6 1017.0 1016.9 0.0
23/11:00pm 22.2 24.3 19.0 82 2.0 S 6 9 3 5 1017.2 1017.1 0.0
23/10:30pm 22.4 25.3 19.0 81 2.2 S 2 7 1 4 1017.5 1017.4 0.0

Other formats

Comma delimited format used in spreadsheet applications
http://www.bom.gov.au/fwo/IDQ60801/IDQ60801.95369.axf

JavaScript Object Notation format (JSON) in row-major order
http://www.bom.gov.au/fwo/IDQ60801/IDQ60801.95369.json

Data quality

Most of these data are generated automatically and are frequently updated. Quality checks on data are not normally performed. It is possible for incorrect values to appear. Refer to information at About Latest Weather Observations and please check the disclaimer before using these data.